Time;durP1;ratioP1;P1;durP2;ratioP2;P2;SDS_P1;SDS_P2;PMS_P1;PMS_P2;Temp;Humidity;BMP_temperature;BMP_pressure;BME280_temperature;BME280_humidity;BME280_pressure;Samples;Min_cycle;Max_cycle;Signal;HPM_P1;HPM_P2
2022/03/31 00:00:41;431109.00;1.44;743.29;79409.00;0.26;138.02;;;;;11.00;1.00;;;;;;2260505;61;1231;-85
2022/03/31 00:03:10;446074.00;1.49;769.03;75980.00;0.25;132.09;;;;;11.10;1.00;;;;;;2260607;61;938;-85
2022/03/31 00:05:38;221845.00;0.74;383.52;0.00;0.00;0.62;;;;;11.10;1.00;;;;;;2260651;61;913;-85
2022/03/31 00:08:07;290039.00;0.97;500.80;0.00;0.00;0.62;;;;;10.90;1.00;;;;;;2260474;61;1762;-88
2022/03/31 00:10:36;481609.00;1.61;830.17;0.00;0.00;0.62;;;;;10.70;1.00;;;;;;2260496;61;1015;-86
2022/03/31 00:15:40;275773.00;0.92;476.27;0.00;0.00;0.62;;;;;10.50;1.00;;;;;;2259892;56;2323;-84
2022/03/31 00:18:10;119882208.00;399.61;69793880.00;0.00;0.00;0.62;;;;;10.80;1.00;;;;;;2260278;61;1384;-85
2022/03/31 00:20:37;216326.00;0.72;374.02;0.00;0.00;0.62;;;;;11.00;1.00;;;;;;2260412;61;1976;-85
2022/03/31 00:23:05;53236.00;0.18;92.78;0.00;0.00;0.62;;;;;11.00;1.00;;;;;;2260560;61;1108;-85
2022/03/31 00:25:32;377125.00;1.26;650.48;0.00;0.00;0.62;;;;;10.70;1.00;;;;;;2260408;61;1509;-86
2022/03/31 00:28:01;148865.00;0.50;257.85;0.00;0.00;0.62;;;;;10.80;1.00;;;;;;2260430;61;1693;-86
2022/03/31 00:30:28;43966.00;0.15;76.75;0.00;0.00;0.62;;;;;10.40;1.00;;;;;;2260575;61;1062;-85
2022/03/31 00:32:57;317556.00;1.06;548.10;11436.00;0.04;20.44;;;;;10.60;1.00;;;;;;2260516;61;1068;-86
2022/03/31 00:35:24;1593311.00;5.31;2819.96;96031.00;0.32;166.72;;;;;10.80;1.00;;;;;;2260358;61;996;-86
2022/03/31 00:37:51;1218172.00;4.06;2123.11;137599.00;0.46;238.43;;;;;10.50;1.00;;;;;;2260418;61;1382;-87
2022/03/31 00:40:21;1342861.00;4.48;2350.76;15213.00;0.05;26.98;;;;;10.30;1.00;;;;;;2260234;61;2005;-86
2022/03/31 00:42:50;1755299.00;5.85;3133.38;283361.00;0.94;489.32;;;;;10.10;1.90;;;;;;2260598;61;1085;-86
2022/03/31 00:45:19;1248851.00;4.16;2178.80;133971.00;0.45;232.18;;;;;10.10;2.50;;;;;;2260382;61;1556;-87
2022/03/31 00:47:46;1587457.00;5.29;2808.79;175851.00;0.59;304.34;;;;;10.00;2.70;;;;;;2260162;61;1567;-87
2022/03/31 00:50:16;1288385.00;4.29;2250.86;183766.00;0.61;317.97;;;;;9.80;4.60;;;;;;2260395;61;1166;-89
2022/03/31 00:52:43;740589.00;2.47;1277.70;114345.00;0.38;198.33;;;;;10.20;3.40;;;;;;2260446;61;1047;-86
2022/03/31 00:55:12;470098.00;1.57;810.36;99608.00;0.33;172.90;;;;;10.60;1.30;;;;;;2260328;61;1146;-86
2022/03/31 00:57:39;316087.00;1.05;545.57;89494.00;0.30;155.43;;;;;10.70;1.00;;;;;;2260364;61;1407;-86
2022/03/31 01:00:11;239727.00;0.80;414.28;0.00;0.00;0.62;;;;;11.00;1.00;;;;;;2260459;61;1924;-86
2022/03/31 01:02:39;238715.00;0.80;412.54;0.00;0.00;0.62;;;;;10.80;1.00;;;;;;2260412;61;1065;-86
2022/03/31 01:05:08;164085.00;0.55;284.08;0.00;0.00;0.62;;;;;10.80;1.00;;;;;;2260403;61;1016;-88
2022/03/31 01:07:37;218958.00;0.73;378.55;0.00;0.00;0.62;;;;;10.80;1.00;;;;;;2260440;61;1376;-84
2022/03/31 01:10:07;191549.00;0.64;331.38;0.00;0.00;0.62;;;;;10.80;1.00;;;;;;2260390;61;1112;-87
2022/03/31 01:12:35;310313.00;1.03;535.65;0.00;0.00;0.62;;;;;10.80;1.00;;;;;;2260319;61;1432;-85
2022/03/31 01:15:10;606080.00;2.02;1044.72;0.00;0.00;0.62;;;;;11.10;1.00;;;;;;2260311;61;1692;-85
2022/03/31 01:17:40;349438.00;1.16;602.90;11139.00;0.04;19.92;;;;;10.90;1.00;;;;;;2260202;61;1592;-86
2022/03/31 01:20:09;288562.00;0.96;498.26;0.00;0.00;0.62;;;;;11.10;1.00;;;;;;2260394;61;1916;-86
2022/03/31 01:22:38;322391.00;1.07;556.41;0.00;0.00;0.62;;;;;11.30;1.00;;;;;;2260309;61;1079;-86
2022/03/31 01:25:08;393332.00;1.31;678.34;0.00;0.00;0.62;;;;;11.30;1.00;;;;;;2260314;61;1084;-86
2022/03/31 01:27:36;339415.00;1.13;585.67;0.00;0.00;0.62;;;;;11.60;1.00;;;;;;2260294;61;1393;-85
2022/03/31 01:30:06;389827.00;1.30;672.32;0.00;0.00;0.62;;;;;11.20;1.00;;;;;;2260332;61;1019;-84
2022/03/31 01:32:34;159888.00;0.53;276.85;0.00;0.00;0.62;;;;;11.40;1.00;;;;;;2260355;61;1009;-85
2022/03/31 01:35:01;260032.00;0.87;449.20;0.00;0.00;0.62;;;;;11.20;1.00;;;;;;2260213;61;1038;-86
2022/03/31 01:37:28;389302.00;1.30;671.41;0.00;0.00;0.62;;;;;10.90;1.00;;;;;;2260292;61;1595;-85
2022/03/31 01:39:55;290082.00;0.97;500.87;0.00;0.00;0.62;;;;;11.00;1.00;;;;;;2260179;61;1915;-85
2022/03/31 01:42:24;336397.00;1.12;580.48;0.00;0.00;0.62;;;;;10.80;1.00;;;;;;2260280;61;989;-86
2022/03/31 01:44:51;534608.00;1.78;921.43;0.00;0.00;0.62;;;;;10.50;1.00;;;;;;2260283;61;1053;-84
2022/03/31 01:47:18;435700.00;1.45;751.19;0.00;0.00;0.62;;;;;10.70;1.00;;;;;;2260104;61;1579;-86
2022/03/31 01:49:45;159490.00;0.53;276.16;0.00;0.00;0.62;;;;;10.80;1.00;;;;;;2260091;61;1099;-86
2022/03/31 01:52:12;335969.00;1.12;579.75;0.00;0.00;0.62;;;;;10.60;1.00;;;;;;2259972;61;1531;-86
2022/03/31 01:54:39;194840.00;0.65;337.04;0.00;0.00;0.62;;;;;10.70;1.00;;;;;;2260122;61;1557;-87
2022/03/31 01:57:06;489965.00;1.63;844.55;29327.00;0.10;51.42;;;;;10.40;1.00;;;;;;2260344;61;1391;-86
2022/03/31 01:59:36;481406.00;1.60;829.82;0.00;0.00;0.62;;;;;10.30;1.00;;;;;;2260141;61;1919;-87
2022/03/31 02:02:03;297143.00;0.99;513.01;0.00;0.00;0.62;;;;;10.40;1.00;;;;;;2260294;61;1020;-86
2022/03/31 02:04:31;188627.00;0.63;326.34;0.00;0.00;0.62;;;;;10.40;1.00;;;;;;2260141;61;1095;-87
2022/03/31 02:06:58;1268234.00;4.23;2214.09;55597.00;0.19;96.86;;;;;10.30;1.00;;;;;;2260151;61;1282;-85
2022/03/31 02:09:25;1297549.00;4.33;2267.62;128160.00;0.43;222.16;;;;;10.00;2.70;;;;;;2260256;61;1123;-86
2022/03/31 02:11:52;1995924.00;6.65;3615.96;108207.00;0.36;187.74;;;;;9.90;3.50;;;;;;2260230;61;1068;-87
2022/03/31 02:14:20;1691559.00;5.64;3009.03;179880.00;0.60;311.28;;;;;9.70;5.00;;;;;;2260073;61;1275;-87
2022/03/31 02:16:49;1306888.00;4.36;2284.72;151482.00;0.50;262.36;;;;;9.90;4.80;;;;;;2260097;61;1347;-87
2022/03/31 02:19:16;428959.00;1.43;739.60;89010.00;0.30;154.60;;;;;10.30;3.10;;;;;;2260176;61;1908;-87
2022/03/31 02:21:44;349729.00;1.17;603.40;0.00;0.00;0.62;;;;;10.70;1.00;;;;;;2259955;61;1122;-89
2022/03/31 02:24:11;174029.00;0.58;301.21;0.00;0.00;0.62;;;;;10.60;1.00;;;;;;2260105;61;1709;-85
2022/03/31 02:26:38;253068.00;0.84;437.23;0.00;0.00;0.62;;;;;10.40;1.00;;;;;;2260044;61;1242;-87
2022/03/31 02:29:06;235209.00;0.78;406.51;0.00;0.00;0.62;;;;;10.30;1.00;;;;;;2260085;61;1688;-87
2022/03/31 02:31:33;251910.00;0.84;435.24;0.00;0.00;0.62;;;;;10.20;1.00;;;;;;2260058;61;1558;-87
2022/03/31 02:34:01;176520.00;0.59;305.50;0.00;0.00;0.62;;;;;10.50;2.10;;;;;;2260123;61;960;-86
2022/03/31 02:36:28;228839.00;0.76;395.55;0.00;0.00;0.62;;;;;10.40;1.00;;;;;;2259872;61;1282;-86
2022/03/31 02:38:55;348164.00;1.16;600.71;0.00;0.00;0.62;;;;;10.30;1.00;;;;;;2259935;61;1126;-86
2022/03/31 02:41:22;373321.00;1.24;643.94;0.00;0.00;0.62;;;;;10.40;2.10;;;;;;2259963;61;1441;-87
2022/03/31 02:43:49;317888.00;1.06;548.67;0.00;0.00;0.62;;;;;10.60;1.00;;;;;;2260162;61;1002;-88
2022/03/31 02:46:16;340392.00;1.13;587.35;45591.00;0.15;79.56;;;;;10.50;1.00;;;;;;2260057;61;1385;-86
2022/03/31 02:48:43;284698.00;0.95;491.61;0.00;0.00;0.62;;;;;10.20;1.00;;;;;;2260188;61;1083;-87
2022/03/31 02:51:12;187949.00;0.63;325.18;0.00;0.00;0.62;;;;;10.40;1.00;;;;;;2260047;61;1055;-85
2022/03/31 02:56:23;91930.00;0.31;159.64;0.00;0.00;0.62;;;;;10.70;1.00;;;;;;2260042;61;1424;-86
2022/03/31 02:58:50;191178.00;0.64;330.74;0.00;0.00;0.62;;;;;10.50;1.00;;;;;;2259973;61;1075;-86
2022/03/31 03:01:17;840250.00;2.80;1451.41;97467.00;0.32;169.20;;;;;10.70;1.00;;;;;;2260044;61;1932;-86
2022/03/31 03:03:44;1208945.00;4.03;2106.40;95641.00;0.32;166.05;;;;;11.10;1.00;;;;;;2260025;61;1067;-86
2022/03/31 03:06:13;1183785.00;3.95;2060.93;129463.00;0.43;224.40;;;;;11.10;1.00;;;;;;2259895;61;1380;-86
2022/03/31 03:08:40;1708898.00;5.70;3042.73;216007.00;0.72;373.47;;;;;11.20;1.00;;;;;;2260100;61;1194;-86
2022/03/31 03:11:07;1080828.00;3.60;1876.17;115551.00;0.39;200.41;;;;;11.10;1.00;;;;;;2259947;61;1036;-86
2022/03/31 03:13:35;390958.00;1.30;674.26;87092.00;0.29;151.29;;;;;11.00;1.00;;;;;;2259996;61;1124;-86
2022/03/31 03:16:05;396555.00;1.32;683.88;93236.00;0.31;161.90;;;;;10.80;1.00;;;;;;2260035;61;1780;-83
2022/03/31 03:18:33;531453.00;1.77;916.00;117885.00;0.39;204.43;;;;;10.80;1.00;;;;;;2259884;61;1024;-86
2022/03/31 03:20:59;516072.00;1.72;889.50;91675.00;0.31;159.20;;;;;10.80;1.00;;;;;;2260033;61;1919;-87
2022/03/31 03:23:28;318575.00;1.06;549.85;100662.00;0.34;174.71;;;;;10.90;1.00;;;;;;2259932;61;1008;-87
2022/03/31 03:25:55;288233.00;0.96;497.69;35616.00;0.12;62.30;;;;;10.80;1.00;;;;;;2260024;61;1381;-87
2022/03/31 03:28:22;185863.00;0.62;321.59;0.00;0.00;0.62;;;;;10.20;1.00;;;;;;2259962;61;953;-86
2022/03/31 03:30:49;96484.00;0.32;167.50;0.00;0.00;0.62;;;;;10.20;1.00;;;;;;2259828;61;1604;-88
2022/03/31 03:33:16;271736.00;0.91;469.33;0.00;0.00;0.62;;;;;9.80;1.00;;;;;;2259846;61;965;-87
2022/03/31 03:35:43;97863.00;0.33;169.88;0.00;0.00;0.62;;;;;9.70;1.00;;;;;;2260073;61;1106;-87
2022/03/31 03:38:10;326915.00;1.09;564.18;0.00;0.00;0.62;;;;;9.70;1.00;;;;;;2259877;61;1303;-88
2022/03/31 03:40:38;353868.00;1.18;610.51;0.00;0.00;0.62;;;;;9.40;1.00;;;;;;2259942;61;1922;-86
2022/03/31 03:43:06;208070.00;0.69;359.81;0.00;0.00;0.62;;;;;9.30;1.00;;;;;;2259731;61;1604;-88
2022/03/31 03:45:33;269014.00;0.90;464.65;0.00;0.00;0.62;;;;;9.30;1.00;;;;;;2259865;61;1040;-87
2022/03/31 03:48:00;556733.00;1.86;959.57;0.00;0.00;0.62;;;;;8.90;1.50;;;;;;2259702;61;1548;-86
2022/03/31 03:50:27;165337.00;0.55;286.23;0.00;0.00;0.62;;;;;8.90;3.20;;;;;;2259978;61;1099;-87
2022/03/31 03:52:54;912240.00;3.04;1577.63;21755.00;0.07;38.31;;;;;9.30;1.30;;;;;;2259828;61;1046;-86
2022/03/31 03:55:23;1161539.00;3.87;2020.83;119169.00;0.40;206.65;;;;;9.40;1.00;;;;;;2259957;61;1033;-87
2022/03/31 03:57:51;491342.00;1.64;846.92;87117.00;0.29;151.33;;;;;9.60;1.00;;;;;;2259875;61;1273;-85
2022/03/31 04:00:19;344656.00;1.15;594.68;104230.00;0.35;180.87;;;;;9.70;1.00;;;;;;2259855;61;1993;-85
2022/03/31 04:02:46;184894.00;0.62;319.92;0.00;0.00;0.62;;;;;9.90;1.00;;;;;;2259702;61;893;-86
2022/03/31 04:05:13;277343.00;0.92;478.97;0.00;0.00;0.62;;;;;10.30;1.00;;;;;;2259740;61;1686;-84
2022/03/31 04:07:40;396522.00;1.32;683.83;3780.00;0.01;7.17;;;;;10.70;1.00;;;;;;2259874;61;2220;-86
2022/03/31 04:10:10;315937.00;1.05;545.31;0.00;0.00;0.62;;;;;10.80;1.00;;;;;;2259944;61;999;-85
2022/03/31 04:12:38;97699.00;0.33;169.60;0.00;0.00;0.62;;;;;10.60;1.00;;;;;;2259978;61;1170;-86
2022/03/31 04:15:08;205021.00;0.68;354.57;15260.00;0.05;27.06;;;;;10.80;1.00;;;;;;2260073;61;1547;-85
2022/03/31 04:17:36;169577.00;0.57;293.54;0.00;0.00;0.62;;;;;11.00;1.00;;;;;;2260337;61;1557;-87
2022/03/31 04:20:04;148425.00;0.49;257.09;0.00;0.00;0.62;;;;;11.10;1.00;;;;;;2260571;61;1989;-85
2022/03/31 04:22:33;205052.00;0.68;354.62;0.00;0.00;0.62;;;;;11.20;1.00;;;;;;2260556;61;1008;-85
2022/03/31 04:25:00;1331002.00;4.44;2328.96;81039.00;0.27;140.83;;;;;11.30;1.00;;;;;;2260476;61;1730;-85
2022/03/31 04:27:29;938888.00;3.13;1624.53;32847.00;0.11;57.51;;;;;11.40;1.00;;;;;;2260443;61;1265;-86
2022/03/31 04:29:56;119915408.00;399.72;69851928.00;118530.00;0.40;205.55;;;;;11.20;1.00;;;;;;2260282;61;2137;-85
2022/03/31 04:32:25;363239.00;1.21;626.62;91070.00;0.30;158.16;;;;;11.10;1.00;;;;;;2260540;61;1018;-86
2022/03/31 04:34:52;126740.00;0.42;219.71;0.00;0.00;0.62;;;;;10.40;1.00;;;;;;2260502;61;1035;-86
2022/03/31 04:37:19;224118.00;0.75;387.43;0.00;0.00;0.62;;;;;9.80;1.00;;;;;;2260389;61;1303;-87
2022/03/31 04:39:46;334654.00;1.12;577.49;0.00;0.00;0.62;;;;;9.90;1.00;;;;;;2260384;61;2009;-86
2022/03/31 04:42:13;130869.00;0.44;226.83;0.00;0.00;0.62;;;;;9.80;1.00;;;;;;2260383;61;1065;-85
2022/03/31 04:44:41;253811.00;0.85;438.51;0.00;0.00;0.62;;;;;9.60;1.00;;;;;;2260449;61;1724;-85
2022/03/31 04:47:11;288395.00;0.96;497.97;0.00;0.00;0.62;;;;;9.70;1.00;;;;;;2260258;61;1380;-87
2022/03/31 04:49:40;170764.00;0.57;295.58;0.00;0.00;0.62;;;;;9.80;1.00;;;;;;2260363;61;1538;-86
2022/03/31 04:52:07;159634.00;0.53;276.41;0.00;0.00;0.62;;;;;9.70;1.00;;;;;;2260315;61;1741;-86
2022/03/31 04:54:34;146769.00;0.49;254.24;0.00;0.00;0.62;;;;;9.50;1.00;;;;;;2260465;61;1127;-86
2022/03/31 04:57:01;239024.00;0.80;413.07;0.00;0.00;0.62;;;;;9.70;1.00;;;;;;2260173;61;1351;-87
2022/03/31 04:59:28;424486.00;1.41;731.90;33015.00;0.11;57.80;;;;;10.00;1.00;;;;;;2260372;61;898;-87
2022/03/31 05:01:55;1204247.00;4.01;2097.90;57239.00;0.19;99.70;;;;;10.10;1.00;;;;;;2260284;61;1922;-84
2022/03/31 05:04:22;1644751.00;5.48;2918.57;77131.00;0.26;134.08;;;;;10.20;1.00;;;;;;2260285;61;1107;-86
2022/03/31 05:06:51;1226226.00;4.09;2137.71;115806.00;0.39;200.85;;;;;10.30;1.00;;;;;;2260309;61;1278;-85
2022/03/31 05:09:18;1024930.00;3.42;1776.68;128762.00;0.43;223.19;;;;;10.30;1.00;;;;;;2260515;61;1123;-85
2022/03/31 05:11:45;327549.00;1.09;565.27;103464.00;0.34;179.55;;;;;10.40;1.00;;;;;;2260360;61;1176;-86
2022/03/31 05:14:12;529593.00;1.77;912.79;82822.00;0.28;143.91;;;;;9.90;1.00;;;;;;2260197;61;1725;-86
2022/03/31 05:16:39;464999.00;1.55;801.59;83125.00;0.28;144.43;;;;;9.40;1.00;;;;;;2260260;61;2080;-86
2022/03/31 05:19:06;474079.00;1.58;817.21;99567.00;0.33;172.82;;;;;9.40;1.00;;;;;;2260173;61;1700;-85
2022/03/31 05:21:33;287171.00;0.96;495.87;0.00;0.00;0.62;;;;;9.60;1.00;;;;;;2260273;61;1999;-86
2022/03/31 05:24:01;240170.00;0.80;415.04;0.00;0.00;0.62;;;;;9.70;1.00;;;;;;2260399;61;992;-84
2022/03/31 05:26:29;78950.00;0.26;137.22;0.00;0.00;0.62;;;;;9.50;1.00;;;;;;2260100;61;1432;-86
2022/03/31 05:28:56;194127.00;0.65;335.81;0.00;0.00;0.62;;;;;9.50;1.00;;;;;;2260153;61;1577;-85
2022/03/31 05:31:23;117607.00;0.39;203.95;0.00;0.00;0.62;;;;;9.70;1.00;;;;;;2260221;61;1495;-86
2022/03/31 05:33:50;708914.00;2.36;1222.70;11457.00;0.04;20.47;;;;;9.60;1.00;;;;;;2260078;61;1428;-85
2022/03/31 05:36:17;355681.00;1.19;613.63;0.00;0.00;0.62;;;;;9.90;1.00;;;;;;2260138;61;1345;-87
2022/03/31 05:38:44;253832.00;0.85;438.54;0.00;0.00;0.62;;;;;9.80;1.00;;;;;;2259969;61;1689;-85
2022/03/31 05:41:12;190936.00;0.64;330.32;0.00;0.00;0.62;;;;;9.90;1.00;;;;;;2260246;61;2042;-86
2022/03/31 05:43:39;416550.00;1.39;718.26;14891.00;0.05;26.42;;;;;9.80;1.00;;;;;;2260140;61;1564;-85
2022/03/31 05:46:07;1603774.00;5.35;2839.95;122548.00;0.41;212.48;;;;;9.80;1.00;;;;;;2260209;61;1376;-85
2022/03/31 05:48:34;1826051.00;6.09;3273.05;114645.00;0.38;198.84;;;;;9.90;1.00;;;;;;2260140;61;1067;-84
2022/03/31 05:51:01;1729936.00;5.77;3083.74;153165.00;0.51;265.26;;;;;9.90;1.00;;;;;;2260255;61;1563;-87
2022/03/31 05:53:28;782206.00;2.61;1350.11;123776.00;0.41;214.60;;;;;9.90;1.00;;;;;;2260216;61;1665;-86
2022/03/31 05:55:55;946766.00;3.16;1638.41;121131.00;0.40;210.03;;;;;9.30;1.00;;;;;;2260080;61;1745;-86
2022/03/31 05:58:23;541379.00;1.80;933.10;86032.00;0.29;149.46;;;;;9.40;1.00;;;;;;2260208;61;1166;-87
2022/03/31 06:00:52;436930.00;1.46;753.30;92953.00;0.31;161.41;;;;;9.40;1.00;;;;;;2260228;61;2002;-87
2022/03/31 06:03:21;501237.00;1.67;863.95;92711.00;0.31;160.99;;;;;9.50;1.00;;;;;;2260090;61;1086;-87
2022/03/31 06:05:48;321916.00;1.07;555.59;89079.00;0.30;154.72;;;;;9.60;1.00;;;;;;2260206;61;1638;-87
2022/03/31 06:08:15;269787.00;0.90;465.98;14250.00;0.05;25.31;;;;;9.60;1.00;;;;;;2260098;61;1625;-85
2022/03/31 06:10:42;175850.00;0.59;304.34;0.00;0.00;0.62;;;;;9.50;1.00;;;;;;2285858;41;3640;-87
2022/03/31 06:13:10;253006.00;0.84;437.12;0.00;0.00;0.62;;;;;9.20;1.00;;;;;;2268080;61;1213;-86
2022/03/31 06:15:38;321153.00;1.07;554.28;0.00;0.00;0.62;;;;;9.50;1.00;;;;;;2268193;61;1646;-85
2022/03/31 06:18:07;469642.00;1.57;809.57;9620.00;0.03;17.29;;;;;9.20;1.00;;;;;;2268177;61;1324;-85
2022/03/31 06:20:34;235048.00;0.78;406.23;0.00;0.00;0.62;;;;;9.70;1.00;;;;;;2268214;61;2006;-86
2022/03/31 06:23:02;207812.00;0.69;359.37;0.00;0.00;0.62;;;;;9.60;1.00;;;;;;2268114;61;949;-87
2022/03/31 06:25:29;404201.00;1.35;697.03;0.00;0.00;0.62;;;;;9.10;1.00;;;;;;2268176;61;1031;-87
2022/03/31 06:27:57;194165.00;0.65;335.88;0.00;0.00;0.62;;;;;8.90;1.00;;;;;;2268183;61;1407;-87
2022/03/31 06:30:24;579720.00;1.93;999.22;21660.00;0.07;38.14;;;;;8.70;1.00;;;;;;2268232;61;1019;-86
2022/03/31 06:32:52;253028.00;0.84;437.16;0.00;0.00;0.62;;;;;9.00;1.50;;;;;;2268237;61;1098;-85
2022/03/31 06:35:20;265967.00;0.89;459.41;0.00;0.00;0.62;;;;;8.90;1.70;;;;;;2268124;61;966;-86
2022/03/31 06:37:48;213702.00;0.71;369.51;0.00;0.00;0.62;;;;;9.20;1.00;;;;;;2267969;61;1309;-86
2022/03/31 06:40:16;514463.00;1.71;886.73;35261.00;0.12;61.69;;;;;9.30;1.00;;;;;;2268173;61;1980;-87
2022/03/31 06:42:45;1233706.00;4.11;2151.28;66434.00;0.22;115.60;;;;;9.30;1.00;;;;;;2268253;61;976;-84
2022/03/31 06:45:15;1209180.00;4.03;2106.83;13672.00;0.05;24.31;;;;;9.60;1.00;;;;;;2268093;61;1532;-87
2022/03/31 06:47:42;1465646.00;4.89;2578.64;133520.00;0.45;231.40;;;;;9.60;1.00;;;;;;2268081;61;1408;-86
2022/03/31 06:50:13;889978.00;2.97;1538.52;156744.00;0.52;271.43;;;;;9.40;1.00;;;;;;2268202;61;947;-87
2022/03/31 06:52:40;817850.00;2.73;1412.27;109617.00;0.37;190.17;;;;;9.10;1.00;;;;;;2268234;61;1038;-86
2022/03/31 06:55:08;118021280.00;393.40;66591020.00;117530056.00;391.77;65762248.00;;;;;9.50;1.00;;;;;;2268106;61;1050;-85
2022/03/31 06:57:35;375919.00;1.25;648.41;12358.00;0.04;22.03;;;;;9.90;1.00;;;;;;2267978;61;1276;-85
2022/03/31 07:00:03;341258.00;1.14;588.84;41788.00;0.14;72.98;;;;;9.90;1.00;;;;;;2268088;61;1109;-86
2022/03/31 07:02:30;428916.00;1.43;739.52;14217.00;0.05;25.25;;;;;9.40;1.00;;;;;;2267984;61;2025;-87
2022/03/31 07:04:56;220842.00;0.74;381.79;0.00;0.00;0.62;;;;;9.20;1.00;;;;;;2268033;61;1493;-87
2022/03/31 07:07:25;158727.00;0.53;274.85;0.00;0.00;0.62;;;;;8.90;1.00;;;;;;2268028;61;1275;-87
2022/03/31 07:09:52;165025.00;0.55;285.70;0.00;0.00;0.62;;;;;8.80;1.70;;;;;;2267914;61;1696;-86
2022/03/31 07:12:20;447753.00;1.49;771.92;48122.00;0.16;83.94;;;;;8.90;2.10;;;;;;2268149;61;971;-86
2022/03/31 07:14:47;264787.00;0.88;457.38;46245.00;0.15;80.69;;;;;9.30;1.00;;;;;;2268018;61;1042;-86
2022/03/31 07:17:14;180655.00;0.60;312.62;0.00;0.00;0.62;;;;;9.70;1.00;;;;;;2268061;61;1249;-85
2022/03/31 07:19:41;76323.00;0.25;132.69;0.00;0.00;0.62;;;;;10.30;1.00;;;;;;2268108;61;1180;-86
2022/03/31 07:22:08;424989.00;1.42;732.77;92811.00;0.31;161.16;;;;;10.00;1.00;;;;;;2267892;61;1996;-85
2022/03/31 07:24:36;725754.00;2.42;1251.93;10590.00;0.04;18.97;;;;;10.20;1.00;;;;;;2268102;61;980;-86
2022/03/31 07:27:04;1104817.00;3.68;1919.04;36794.00;0.12;64.34;;;;;10.30;1.00;;;;;;2267776;61;1375;-87
2022/03/31 07:29:31;399750.00;1.33;689.38;79982.00;0.27;139.01;;;;;10.40;1.00;;;;;;2267929;61;1571;-85
2022/03/31 07:31:58;301737.00;1.01;520.91;0.00;0.00;0.62;;;;;10.70;1.00;;;;;;2267912;61;960;-85
2022/03/31 07:34:25;227789.00;0.76;393.74;0.00;0.00;0.62;;;;;10.50;1.00;;;;;;2268002;61;1146;-86
2022/03/31 07:36:53;720241.00;2.40;1242.36;82766.00;0.28;143.81;;;;;9.90;1.00;;;;;;2268052;61;1406;-85
2022/03/31 07:39:21;1387609.00;4.63;2433.36;37585.00;0.13;65.71;;;;;9.70;1.00;;;;;;2267993;61;1415;-85
2022/03/31 07:41:49;945085.00;3.15;1635.45;20664.00;0.07;36.42;;;;;10.10;1.00;;;;;;2268006;61;1990;-86
2022/03/31 07:44:16;246157.00;0.82;425.34;0.00;0.00;0.62;;;;;10.50;1.00;;;;;;2267897;61;983;-85
2022/03/31 07:46:43;355803.00;1.19;613.84;0.00;0.00;0.62;;;;;10.30;1.00;;;;;;2267673;61;1495;-84
2022/03/31 07:49:10;457551.00;1.53;788.77;47378.00;0.16;82.65;;;;;9.80;1.00;;;;;;2267757;61;2209;-84
2022/03/31 07:51:37;200677.00;0.67;347.09;0.00;0.00;0.62;;;;;9.40;1.00;;;;;;2268538;61;1110;-85
2022/03/31 07:54:04;1693246.00;5.64;3012.31;116984.00;0.39;202.88;;;;;9.50;1.00;;;;;;2268430;61;1669;-86
2022/03/31 07:56:31;250473.00;0.83;432.76;0.00;0.00;0.62;;;;;9.60;1.00;;;;;;2268506;61;1252;-84
2022/03/31 07:59:00;426424.00;1.42;735.24;16201.00;0.05;28.69;;;;;10.00;1.00;;;;;;2268641;61;1071;-86
2022/03/31 08:01:27;1551100.00;5.17;2739.65;172282.00;0.57;298.20;;;;;10.50;1.00;;;;;;2268425;61;2008;-84
2022/03/31 08:03:54;1339781.00;4.47;2345.10;187812.00;0.63;324.94;;;;;10.80;1.00;;;;;;2268469;61;1102;-84
2022/03/31 08:06:23;474936.00;1.58;818.68;106409.00;0.35;184.63;;;;;10.50;1.00;;;;;;2268670;61;1399;-86
2022/03/31 08:08:50;567701.00;1.89;978.48;97079.00;0.32;168.53;;;;;10.40;1.00;;;;;;2268720;61;1080;-84
2022/03/31 08:11:17;117525288.00;391.75;65754236.00;98044.00;0.33;170.20;;;;;10.60;1.00;;;;;;2268513;61;1058;-84
2022/03/31 08:13:44;649070.00;2.16;1119.03;112099.00;0.37;194.45;;;;;10.70;1.00;;;;;;2268649;61;1035;-84
2022/03/31 08:16:12;733303.00;2.44;1265.04;101603.00;0.34;176.34;;;;;10.80;1.00;;;;;;2268477;61;1312;-84
2022/03/31 08:18:39;580797.00;1.94;1001.07;87034.00;0.29;151.19;;;;;10.90;1.00;;;;;;2268538;61;1078;-84
2022/03/31 08:21:07;391752.00;1.31;675.63;88394.00;0.29;153.53;;;;;11.10;1.00;;;;;;2268503;61;1984;-86
2022/03/31 08:23:34;790455.00;2.63;1364.48;214699.00;0.72;371.22;;;;;11.00;1.00;;;;;;2268492;61;1652;-87
2022/03/31 08:26:02;377157.00;1.26;650.54;0.00;0.00;0.62;;;;;11.00;1.00;;;;;;2268487;61;1403;-85
2022/03/31 08:28:31;142629.00;0.48;247.10;0.00;0.00;0.62;;;;;11.20;1.00;;;;;;2268605;61;983;-86
2022/03/31 08:30:59;209002.00;0.70;361.42;0.00;0.00;0.62;;;;;10.70;1.00;;;;;;2268602;61;1662;-85
2022/03/31 08:33:28;373981.00;1.25;645.08;0.00;0.00;0.62;;;;;10.80;1.00;;;;;;2268504;61;1541;-86
2022/03/31 08:35:55;348441.00;1.16;601.18;0.00;0.00;0.62;;;;;10.90;1.00;;;;;;2268523;61;1464;-85
2022/03/31 08:38:22;624132.00;2.08;1075.91;82484.00;0.27;143.33;;;;;11.20;1.00;;;;;;2268490;61;1586;-85
2022/03/31 08:40:50;397959.00;1.33;686.30;0.00;0.00;0.62;;;;;11.30;1.00;;;;;;2268544;61;1008;-85
2022/03/31 08:43:19;138668.00;0.46;240.27;0.00;0.00;0.62;;;;;11.30;1.00;;;;;;2268485;61;1615;-85
2022/03/31 08:45:55;189686.00;0.63;328.17;0.00;0.00;0.62;;;;;11.00;1.00;;;;;;2268478;61;1600;-85
2022/03/31 08:48:22;305394.00;1.02;527.19;26131.00;0.09;45.89;;;;;10.80;1.00;;;;;;2268467;61;1698;-86
2022/03/31 08:50:54;288169.00;0.96;497.58;0.00;0.00;0.62;;;;;10.70;1.00;;;;;;2268319;61;1655;-85
2022/03/31 08:53:21;370480.00;1.23;639.06;0.00;0.00;0.62;;;;;11.00;1.00;;;;;;2268287;61;1419;-84
2022/03/31 08:55:48;489558.00;1.63;843.85;28269.00;0.09;49.59;;;;;10.70;1.00;;;;;;2268428;61;1020;-85
2022/03/31 08:58:16;656111.00;2.19;1131.21;36573.00;0.12;63.96;;;;;11.00;1.00;;;;;;2268292;61;1522;-84
2022/03/31 09:00:46;230449.00;0.77;398.32;0.00;0.00;0.62;;;;;11.00;1.00;;;;;;2268330;61;911;-84
2022/03/31 09:03:13;235741.00;0.79;407.43;11100.00;0.04;19.85;;;;;11.00;1.00;;;;;;2268454;61;1997;-85
2022/03/31 09:05:48;408699.00;1.36;704.76;93879.00;0.31;163.01;;;;;10.90;1.00;;;;;;2268505;61;912;-86
2022/03/31 09:08:18;160971.00;0.54;278.71;0.00;0.00;0.62;;;;;10.80;1.00;;;;;;2268408;61;1455;-85
2022/03/31 09:10:58;582981.00;1.94;1004.84;0.00;0.00;0.62;;;;;10.90;1.00;;;;;;2268266;61;1588;-85
2022/03/31 09:13:28;196030.00;0.65;339.09;0.00;0.00;0.62;;;;;10.90;1.00;;;;;;2268360;61;1346;-85
2022/03/31 09:15:57;609300.00;2.03;1050.28;32197.00;0.11;56.39;;;;;11.00;1.00;;;;;;2268267;61;1332;-85
2022/03/31 09:18:28;350828.00;1.17;605.28;0.00;0.00;0.62;;;;;11.20;1.00;;;;;;2268385;61;1015;-84
2022/03/31 09:20:57;665319.00;2.22;1147.15;445.00;0.00;1.39;;;;;11.50;1.00;;;;;;2268364;61;1487;-85
2022/03/31 09:23:29;182848.00;0.61;316.39;0.00;0.00;0.62;;;;;11.90;1.00;;;;;;2268328;61;1935;-85
2022/03/31 09:26:05;638598.00;2.13;1100.91;15704.00;0.05;27.83;;;;;11.40;1.00;;;;;;2268331;61;1357;-85
2022/03/31 09:28:32;822853.00;2.74;1421.01;815.00;0.00;2.03;;;;;10.90;1.00;;;;;;2268445;61;1006;-86
2022/03/31 09:30:59;1498302.00;4.99;2639.93;119592.00;0.40;207.38;;;;;11.00;1.00;;;;;;2268290;61;2226;-84
2022/03/31 09:33:33;2008479.00;6.69;3641.75;171079.00;0.57;296.13;;;;;11.60;1.00;;;;;;2268283;61;1475;-86
2022/03/31 09:36:02;1452534.00;4.84;2554.12;138692.00;0.46;240.32;;;;;12.00;1.00;;;;;;2268170;61;1655;-86
2022/03/31 09:38:35;1656121.00;5.52;2940.48;324347.00;1.08;559.77;;;;;12.60;1.00;;;;;;2268045;61;1500;-85
2022/03/31 09:41:04;1463994.00;4.88;2575.55;288320.00;0.96;497.84;;;;;11.90;1.00;;;;;;2267989;61;1634;-86
2022/03/31 09:43:41;674785.00;2.25;1163.54;83630.00;0.28;145.31;;;;;11.90;1.00;;;;;;2268181;61;2001;-85
2022/03/31 09:46:19;553459.00;1.84;953.92;93299.00;0.31;162.00;;;;;12.10;1.00;;;;;;2268011;61;1582;-85
2022/03/31 09:48:48;637779.00;2.13;1099.50;102877.00;0.34;178.54;;;;;12.60;1.00;;;;;;2267964;61;1591;-85